Time;durP1;ratioP1;P1;durP2;ratioP2;P2;SDS_P1;SDS_P2;PMS_P1;PMS_P2;Temp;Humidity;BMP_temperature;BMP_pressure;BME280_temperature;BME280_humidity;BME280_pressure;Samples;Min_cycle;Max_cycle;Signal;HPM_P1;HPM_P2
2023/05/17 00:04:23;;;;;;;4.00;1.60;;;9.10;1.00;;;;;;5093885;28;20157;-81
2023/05/17 00:06:49;;;;;;;5.30;1.40;;;9.10;1.00;;;;;;5106823;28;20423;-74
2023/05/17 00:09:15;;;;;;;1.70;1.50;;;9.10;1.00;;;;;;5096464;28;20206;-74
2023/05/17 00:11:41;;;;;;;2.73;1.73;;;9.20;1.00;;;;;;5094034;28;20249;-74
2023/05/17 00:14:06;;;;;;;2.27;1.73;;;9.00;1.00;;;;;;5094000;28;20166;-74
2023/05/17 00:16:42;;;;;;;5.63;1.50;;;9.00;1.00;;;;;;5094058;28;20159;-74
2023/05/17 00:19:10;;;;;;;2.80;2.00;;;9.00;1.00;;;;;;5093368;28;20183;-74
2023/05/17 00:21:42;;;;;;;4.20;1.80;;;9.00;1.00;;;;;;5094327;28;20394;-74
2023/05/17 00:24:08;;;;;;;5.27;2.03;;;9.00;1.00;;;;;;5098989;28;20506;-74
2023/05/17 00:26:36;;;;;;;5.30;2.40;;;9.00;1.00;;;;;;5114142;28;20537;-74
2023/05/17 00:29:02;;;;;;;4.33;2.40;;;9.00;1.00;;;;;;5114166;28;20493;-74
2023/05/17 00:31:47;;;;;;;5.57;1.80;;;9.10;1.00;;;;;;5112062;28;20517;-74
2023/05/17 00:34:18;;;;;;;5.17;1.87;;;9.00;1.00;;;;;;5093649;28;20412;-74
2023/05/17 00:36:48;;;;;;;3.10;1.97;;;9.00;1.00;;;;;;5093914;28;20848;-73
2023/05/17 00:39:47;;;;;;;3.40;2.00;;;9.00;1.00;;;;;;5103892;28;20422;-74
2023/05/17 00:42:14;;;;;;;1.97;1.73;;;9.00;1.00;;;;;;5114097;28;20464;-74
2023/05/17 00:44:42;;;;;;;9.23;2.00;;;9.00;1.00;;;;;;5113898;28;20440;-74
2023/05/17 00:47:08;;;;;;;3.90;1.93;;;9.00;1.00;;;;;;5114133;28;20439;-74
2023/05/17 00:49:33;;;;;;;4.80;2.70;;;9.00;1.00;;;;;;5101130;28;20487;-74
2023/05/17 00:55:21;;;;;;;5.47;1.90;;;9.00;1.00;;;;;;5093479;28;20209;-82
2023/05/17 01:01:08;;;;;;;4.80;2.07;;;8.90;1.00;;;;;;5093360;28;20526;-82
2023/05/17 01:07:00;;;;;;;4.23;2.03;;;8.90;1.00;;;;;;5097135;28;20645;-74
2023/05/17 01:09:42;;;;;;;4.93;2.67;;;8.80;1.00;;;;;;5097715;28;20478;-74
2023/05/17 01:12:54;;;;;;;2.90;1.77;;;8.80;1.00;;;;;;5117666;28;20387;-74
2023/05/17 01:15:52;;;;;;;9.53;3.00;;;8.80;1.00;;;;;;5117420;28;20500;-74
2023/05/17 01:18:57;;;;;;;3.83;2.13;;;8.70;1.00;;;;;;5110822;28;20780;-74
2023/05/17 01:21:56;;;;;;;3.17;1.90;;;8.70;1.00;;;;;;5113456;28;20478;-74
2023/05/17 01:24:47;;;;;;;10.50;2.27;;;8.60;1.00;;;;;;5097000;28;20384;-74
2023/05/17 01:27:14;;;;;;;8.27;2.20;;;8.50;1.00;;;;;;5096924;28;20432;-74
2023/05/17 01:29:42;;;;;;;7.70;2.03;;;8.50;1.00;;;;;;5078035;28;20944;-74
2023/05/17 01:32:13;;;;;;;5.53;2.03;;;8.40;1.00;;;;;;5096752;28;20388;-74
2023/05/17 01:34:40;;;;;;;4.40;2.00;;;8.40;1.00;;;;;;5096668;28;20393;-75
2023/05/17 01:47:23;;;;;;;10.20;2.67;;;8.20;1.00;;;;;;5096373;28;20938;-82
2023/05/17 01:53:21;;;;;;;5.67;2.93;;;8.10;1.00;;;;;;5096050;28;20434;-82
2023/05/17 01:59:10;;;;;;;10.33;3.10;;;8.00;1.00;;;;;;5096136;28;20487;-82
2023/05/17 02:04:57;;;;;;;6.87;2.93;;;7.90;1.00;;;;;;5107635;28;20897;-82
2023/05/17 02:07:23;;;;;;;8.90;3.10;;;7.90;1.00;;;;;;5100275;28;20424;-75
2023/05/17 02:09:49;;;;;;;5.13;2.87;;;7.80;1.00;;;;;;5115609;28;20280;-74
2023/05/17 02:12:18;;;;;;;9.40;3.33;;;7.80;1.00;;;;;;5116677;28;20154;-74
2023/05/17 02:14:48;;;;;;;9.70;2.80;;;7.80;1.00;;;;;;5116604;28;20154;-74
2023/05/17 02:17:24;;;;;;;6.20;2.83;;;7.70;1.00;;;;;;5115920;28;20420;-74
2023/05/17 02:20:07;;;;;;;2.77;2.50;;;7.60;1.00;;;;;;5115682;28;20930;-74
2023/05/17 02:22:53;;;;;;;10.83;2.80;;;7.50;1.00;;;;;;5116082;28;20438;-75
2023/05/17 02:25:19;;;;;;;5.40;3.20;;;7.50;1.00;;;;;;5105769;28;20466;-74
2023/05/17 02:27:48;;;;;;;11.17;3.90;;;7.40;1.00;;;;;;5109819;28;20463;-75
2023/05/17 02:30:15;;;;;;;18.07;2.50;;;7.40;1.00;;;;;;5115817;28;20565;-74
2023/05/17 02:32:48;;;;;;;6.13;2.67;;;7.30;1.00;;;;;;5101242;28;20926;-74
2023/05/17 02:35:30;;;;;;;4.13;2.63;;;7.20;1.00;;;;;;5095516;28;20401;-75
2023/05/17 02:41:18;;;;;;;7.60;2.77;;;7.10;1.00;;;;;;5095319;28;20360;-82
2023/05/17 02:44:17;;;;;;;4.27;2.70;;;7.00;1.00;;;;;;5076741;28;20503;-82
2023/05/17 02:53:27;;;;;;;8.73;3.20;;;6.90;1.00;;;;;;5106836;28;20901;-74
2023/05/17 02:55:56;;;;;;;4.50;3.07;;;6.80;1.00;;;;;;5115643;28;20388;-75
2023/05/17 02:58:23;;;;;;;7.60;3.07;;;6.70;1.00;;;;;;5115639;28;20165;-75
2023/05/17 03:00:54;;;;;;;5.27;3.17;;;6.70;1.00;;;;;;5115778;28;20400;-74
2023/05/17 03:03:20;;;;;;;9.00;3.00;;;6.60;1.00;;;;;;5106425;28;20907;-75
2023/05/17 03:05:48;;;;;;;4.10;3.23;;;6.60;1.00;;;;;;5094721;28;20417;-75
2023/05/17 03:08:14;;;;;;;7.30;3.70;;;6.50;1.00;;;;;;5095226;28;20166;-74
2023/05/17 03:10:39;;;;;;;9.03;3.17;;;6.50;1.00;;;;;;5094872;28;20866;-75
2023/05/17 03:13:12;;;;;;;4.93;2.97;;;7.80;1.00;;;;;;5094818;28;20231;-75
2023/05/17 03:15:48;;;;;;;6.50;3.30;;;6.40;1.00;;;;;;5094381;28;20175;-74
2023/05/17 03:18:18;;;;;;;5.23;3.23;;;6.30;1.00;;;;;;5095004;28;20381;-75
2023/05/17 03:20:48;;;;;;;6.10;2.70;;;6.30;1.00;;;;;;5094893;28;20385;-74
2023/05/17 03:26:35;;;;;;;10.03;3.67;;;6.20;1.00;;;;;;5094361;28;20439;-82
2023/05/17 03:29:47;;;;;;;4.57;3.30;;;6.10;1.00;;;;;;5075213;28;20499;-82
2023/05/17 03:35:35;;;;;;;5.27;3.17;;;6.00;1.00;;;;;;5114523;28;20402;-83
2023/05/17 03:38:29;;;;;;;5.50;3.20;;;6.00;1.00;;;;;;5115705;28;20392;-82
2023/05/17 03:41:00;;;;;;;5.20;2.90;;;6.00;1.00;;;;;;5095884;28;20189;-82
2023/05/17 03:44:17;;;;;;;6.27;3.20;;;6.00;1.00;;;;;;5113160;28;20908;-82
2023/05/17 03:47:17;;;;;;;6.40;3.50;;;5.90;1.00;;;;;;5114679;28;20387;-82
2023/05/17 03:49:46;;;;;;;5.33;3.07;;;5.90;1.00;;;;;;5114844;28;20455;-83
2023/05/17 03:52:11;;;;;;;4.97;3.13;;;5.90;1.00;;;;;;5096873;28;20410;-86
2023/05/17 03:54:48;;;;;;;4.03;3.27;;;5.80;1.00;;;;;;5097250;28;20396;-86
2023/05/17 04:00:35;;;;;;;3.53;3.20;;;5.70;1.00;;;;;;5097571;28;20464;-86
2023/05/17 04:03:18;;;;;;;4.93;3.17;;;5.80;1.00;;;;;;5093197;28;20511;-86
2023/05/17 04:09:14;;;;;;;7.40;3.70;;;5.70;1.00;;;;;;5094409;28;20470;-88
2023/05/17 04:15:03;;;;;;;12.67;3.57;;;5.90;1.00;;;;;;5094173;28;20480;-89
2023/05/17 04:20:55;;;;;;;8.73;3.40;;;;;;;;;;5094321;28;20426;-89
2023/05/17 04:23:42;;;;;;;6.40;3.77;;;5.90;1.00;;;;;;5078163;28;20435;-88
2023/05/17 04:26:19;;;;;;;7.27;3.33;;;5.90;1.00;;;;;;5108600;28;20787;-88
2023/05/17 04:28:45;;;;;;;4.80;2.80;;;6.00;1.00;;;;;;5113815;28;20447;-88
2023/05/17 04:31:48;;;;;;;5.60;2.70;;;6.00;1.00;;;;;;5074757;28;20932;-88
2023/05/17 04:34:48;;;;;;;6.83;2.90;;;6.10;1.00;;;;;;5076147;28;20181;-88
2023/05/17 04:40:48;;;;;;;13.70;3.50;;;6.20;1.00;;;;;;5096963;28;21003;-88
2023/05/17 04:43:48;;;;;;;8.43;3.27;;;6.30;1.00;;;;;;5080061;28;20514;-88
2023/05/17 04:46:59;;;;;;;10.20;3.73;;;6.40;1.00;;;;;;5098290;28;20396;-88
2023/05/17 04:49:45;;;;;;;6.30;2.93;;;6.50;1.00;;;;;;5097679;28;20455;-88
2023/05/17 04:52:18;;;;;;;5.40;3.40;;;;;;;;;;5079734;28;20427;-88
2023/05/17 04:55:30;;;;;;;3.53;2.53;;;6.70;1.00;;;;;;5084220;28;20415;-90
2023/05/17 04:58:18;;;;;;;9.10;3.27;;;6.80;1.00;;;;;;5079505;28;20919;-89
2023/05/17 05:00:43;;;;;;;4.10;2.97;;;6.90;1.00;;;;;;5079892;28;20435;-89
2023/05/17 05:03:47;;;;;;;10.10;2.80;;;7.00;1.00;;;;;;5095174;28;20427;-90
2023/05/17 05:06:47;;;;;;;5.80;3.13;;;7.10;1.00;;;;;;5079675;28;20607;-90
2023/05/17 05:10:00;;;;;;;5.30;3.17;;;7.30;1.00;;;;;;5080081;28;20536;-88
2023/05/17 05:12:30;;;;;;;12.33;3.67;;;7.40;1.00;;;;;;5087261;28;20431;-88
2023/05/17 05:15:30;;;;;;;6.87;2.70;;;7.50;1.00;;;;;;5093193;28;20748;-88
2023/05/17 05:18:18;;;;;;;8.10;3.57;;;7.70;1.00;;;;;;5087220;28;20443;-88
2023/05/17 05:24:06;;;;;;;5.10;2.53;;;7.90;1.00;;;;;;5118258;28;20487;-88
2023/05/17 05:26:48;;;;;;;5.97;3.07;;;8.00;1.00;;;;;;5079131;28;20622;-88
2023/05/17 05:29:48;;;;;;;3.83;2.67;;;8.20;1.00;;;;;;5079154;28;20522;-89
2023/05/17 05:32:30;;;;;;;5.17;2.97;;;8.40;1.00;;;;;;5099703;28;20393;-88
2023/05/17 05:35:18;;;;;;;4.07;2.90;;;8.50;1.00;;;;;;5099556;28;20399;-88
2023/05/17 05:38:18;;;;;;;9.50;2.80;;;8.70;1.00;;;;;;5099455;28;20407;-88
2023/05/17 05:40:48;;;;;;;3.80;2.97;;;8.90;1.00;;;;;;5099323;28;20753;-74
2023/05/17 05:46:42;;;;;;;6.43;3.10;;;9.30;1.00;;;;;;5096727;28;20395;-75
2023/05/17 05:49:12;;;;;;;10.57;3.60;;;9.50;1.00;;;;;;5096768;28;20452;-74
2023/05/17 05:51:48;;;;;;;13.60;3.87;;;9.60;1.00;;;;;;5095888;28;20415;-74
2023/05/17 05:54:15;;;;;;;10.60;3.13;;;9.70;1.00;;;;;;5096338;28;20403;-73
2023/05/17 05:56:40;;;;;;;6.60;2.80;;;9.90;1.00;;;;;;5096737;28;20409;-70
2023/05/17 05:59:06;;;;;;;10.63;3.30;;;10.00;1.00;;;;;;5114248;28;20842;-75
2023/05/17 06:01:32;;;;;;;9.97;3.00;;;10.10;1.00;;;;;;5098457;28;20176;-75
2023/05/17 06:04:00;;;;;;;10.63;3.00;;;10.30;1.00;;;;;;5116749;28;20161;-75
2023/05/17 06:06:36;;;;;;;5.57;2.83;;;10.50;1.00;;;;;;5114879;28;20792;-75
2023/05/17 06:09:02;;;;;;;6.60;3.00;;;10.70;1.00;;;;;;5105437;28;20491;-75
2023/05/17 06:11:28;;;;;;;8.67;3.17;;;10.90;1.00;;;;;;5096104;28;20400;-75
2023/05/17 06:13:54;;;;;;;6.93;3.20;;;11.20;1.00;;;;;;5095988;28;20367;-75
2023/05/17 06:16:24;;;;;;;7.10;3.10;;;11.60;1.00;;;;;;5096053;28;20163;-75
2023/05/17 06:18:50;;;;;;;7.77;3.30;;;11.90;1.00;;;;;;5096098;28;20823;-75
2023/05/17 06:21:17;;;;;;;5.70;2.83;;;12.30;1.00;;;;;;5095963;28;20407;-75
2023/05/17 06:23:48;;;;;;;5.93;2.63;;;12.50;1.00;;;;;;5111280;28;20193;-75
2023/05/17 06:26:18;;;;;;;7.17;3.00;;;12.70;1.00;;;;;;5101785;28;20428;-75
2023/05/17 06:28:48;;;;;;;7.87;2.90;;;12.90;1.00;;;;;;5087036;28;20857;-75
2023/05/17 06:31:30;;;;;;;4.30;2.60;;;13.00;1.00;;;;;;5095280;28;20432;-75
2023/05/17 06:33:56;;;;;;;11.03;2.90;;;13.10;1.00;;;;;;5095535;28;20379;-75
2023/05/17 06:36:22;;;;;;;6.40;2.90;;;13.30;1.00;;;;;;5095343;28;20379;-75
2023/05/17 06:38:48;;;;;;;11.67;2.93;;;13.40;1.00;;;;;;5095608;28;20375;-75
2023/05/17 06:44:48;;;;;;;11.80;3.23;;;13.40;1.00;;;;;;5095014;28;20444;-75
2023/05/17 06:47:18;;;;;;;9.80;2.77;;;13.50;1.00;;;;;;5099782;28;20985;-75
2023/05/17 06:49:46;;;;;;;5.87;2.70;;;13.50;1.00;;;;;;5114508;28;20992;-75
2023/05/17 06:53:00;;;;;;;5.40;2.70;;;13.60;1.00;;;;;;5115664;28;20408;-75
2023/05/17 06:55:25;;;;;;;7.40;2.87;;;13.50;1.00;;;;;;5115842;28;20457;-75
2023/05/17 07:01:13;;;;;;;9.43;2.97;;;13.50;1.00;;;;;;5115472;28;20640;-82
2023/05/17 07:03:48;;;;;;;5.93;2.73;;;13.50;1.00;;;;;;5115553;28;20384;-81
2023/05/17 07:06:48;;;;;;;10.13;2.73;;;13.40;1.00;;;;;;5096332;28;20173;-82
2023/05/17 07:09:48;;;;;;;8.93;3.37;;;13.50;1.00;;;;;;5094888;28;20425;-82
2023/05/17 07:12:18;;;;;;;6.93;2.70;;;13.50;1.00;;;;;;5077202;28;20383;-82
2023/05/17 07:14:48;;;;;;;10.73;2.97;;;13.70;1.00;;;;;;5095058;28;20367;-82
2023/05/17 07:17:18;;;;;;;15.13;2.90;;;13.80;1.00;;;;;;5094579;28;20359;-82
2023/05/17 07:19:51;;;;;;;11.70;2.97;;;13.70;1.00;;;;;;5076324;28;20383;-82
2023/05/17 07:22:48;;;;;;;4.53;2.53;;;13.70;1.00;;;;;;5094458;28;20399;-82
2023/05/17 07:25:20;;;;;;;20.60;2.83;;;13.70;1.00;;;;;;5076334;28;20391;-82
2023/05/17 07:27:48;;;;;;;8.40;2.50;;;14.00;1.00;;;;;;5095061;28;20391;-75
2023/05/17 07:30:14;;;;;;;6.33;2.70;;;14.40;1.00;;;;;;5094447;28;20439;-75
2023/05/17 07:32:42;;;;;;;5.07;2.70;;;14.80;1.00;;;;;;5094341;28;20429;-75
2023/05/17 07:35:18;;;;;;;3.70;2.30;;;15.00;1.00;;;;;;5110616;28;20174;-75
2023/05/17 07:37:54;;;;;;;7.63;2.60;;;15.30;1.00;;;;;;5112776;28;20411;-75
2023/05/17 07:40:30;;;;;;;12.03;2.50;;;15.40;1.00;;;;;;5099300;28;20899;-75
2023/05/17 07:43:18;;;;;;;4.43;1.93;;;15.90;1.00;;;;;;5094786;28;20749;-75
2023/05/17 07:45:44;;;;;;;5.90;2.33;;;16.40;1.00;;;;;;5098078;28;20474;-75
2023/05/17 07:48:10;;;;;;;5.17;2.70;;;16.50;1.00;;;;;;5113577;28;20393;-75
2023/05/17 07:50:48;;;;;;;7.80;2.00;;;16.60;1.00;;;;;;5095739;28;20469;-75
2023/05/17 07:53:36;;;;;;;5.20;2.40;;;16.50;1.00;;;;;;5114162;28;20185;-85
2023/05/17 07:56:47;;;;;;;5.60;2.20;;;16.50;1.00;;;;;;5076219;28;20414;-85
2023/05/17 07:59:18;;;;;;;2.30;1.90;;;16.40;1.00;;;;;;5104867;28;20428;-84
2023/05/17 08:01:49;;;;;;;4.00;2.07;;;16.20;1.00;;;;;;5111441;28;20429;-84
2023/05/17 08:04:18;;;;;;;3.47;2.40;;;16.10;1.00;;;;;;5086099;28;20432;-84
2023/05/17 08:06:48;;;;;;;4.60;1.90;;;16.00;1.00;;;;;;5094885;28;20941;-85
2023/05/17 08:09:15;;;;;;;5.40;2.10;;;15.90;1.00;;;;;;5096304;28;20502;-84
2023/05/17 08:15:18;;;;;;;3.63;2.20;;;15.60;1.00;;;;;;5098483;28;20434;-84
2023/05/17 08:17:48;;;;;;;5.23;2.03;;;15.60;1.00;;;;;;5082933;28;20462;-85
2023/05/17 08:20:18;;;;;;;3.03;1.80;;;15.70;1.00;;;;;;5082772;28;20471;-84
2023/05/17 08:23:18;;;;;;;1.80;1.70;;;15.80;1.00;;;;;;5082796;28;20395;-84
2023/05/17 08:25:48;;;;;;;2.93;2.07;;;15.90;1.00;;;;;;5082741;28;20466;-85
2023/05/17 08:29:00;;;;;;;5.43;2.10;;;15.90;1.00;;;;;;5100991;28;20429;-84
2023/05/17 08:32:18;;;;;;;3.47;1.93;;;16.10;1.00;;;;;;5099246;28;20433;-85
2023/05/17 08:38:43;;;;;;;5.17;2.60;;;16.50;1.00;;;;;;5119238;28;20485;-84
2023/05/17 08:41:42;;;;;;;9.60;2.57;;;16.70;1.00;;;;;;5101482;28;20403;-84
2023/05/17 08:47:32;;;;;;;11.87;2.83;;;17.10;1.00;;;;;;5121329;28;20377;-85
2023/05/17 08:50:13;;;;;;;5.40;2.37;;;17.30;1.00;;;;;;5102840;28;20444;-85
2023/05/17 08:52:45;;;;;;;5.60;2.50;;;17.30;1.00;;;;;;5101383;28;20440;-85
2023/05/17 08:55:15;;;;;;;9.53;2.23;;;17.50;1.00;;;;;;5102381;28;20434;-85
2023/05/17 08:57:43;;;;;;;5.10;2.50;;;17.80;1.00;;;;;;5101995;28;20429;-85
2023/05/17 09:00:42;;;;;;;4.60;2.00;;;18.00;1.00;;;;;;5102878;28;20472;-85
2023/05/17 09:07:12;;;;;;;6.10;2.57;;;18.00;1.00;;;;;;5118011;28;20548;-85
2023/05/17 09:10:12;;;;;;;5.43;1.87;;;17.90;1.00;;;;;;5102948;28;20442;-85
2023/05/17 09:12:43;;;;;;;9.10;2.37;;;17.90;1.00;;;;;;5103163;28;20390;-85
2023/05/17 09:15:43;;;;;;;4.60;1.80;;;17.80;1.00;;;;;;5102658;28;20402;-85
2023/05/17 09:22:13;;;;;;;4.87;2.20;;;17.60;1.00;;;;;;5116137;28;20425;-85
2023/05/17 09:24:40;;;;;;;2.63;1.80;;;17.30;1.00;;;;;;5099415;28;20476;-85
2023/05/17 09:27:06;;;;;;;2.57;2.00;;;17.40;1.00;;;;;;5078570;28;20909;-84
2023/05/17 09:29:48;;;;;;;5.63;2.30;;;17.50;1.00;;;;;;5096281;28;20541;-85
2023/05/17 09:32:25;;;;;;;4.13;1.83;;;17.60;1.00;;;;;;5078997;28;20938;-84
2023/05/17 09:34:51;;;;;;;3.30;2.10;;;17.70;1.00;;;;;;5079309;28;20403;-85
2023/05/17 09:37:30;;;;;;;5.00;1.93;;;17.80;1.00;;;;;;5080306;28;20425;-84
2023/05/17 09:40:42;;;;;;;6.37;2.40;;;17.70;1.00;;;;;;5079162;28;20434;-85
2023/05/17 09:43:42;;;;;;;4.50;2.23;;;17.50;1.00;;;;;;5087581;28;20431;-84
2023/05/17 09:46:07;;;;;;;4.10;1.80;;;17.70;1.00;;;;;;5098686;28;20424;-84
2023/05/17 09:48:37;;;;;;;4.87;2.03;;;17.90;1.00;;;;;;5098592;28;20897;-84
2023/05/17 09:51:04;;;;;;;2.97;1.60;;;18.50;1.00;;;;;;5098517;28;20184;-85
2023/05/17 09:53:32;;;;;;;6.50;2.50;;;19.00;1.00;;;;;;5095160;28;20438;-84
2023/05/17 09:56:04;;;;;;;5.03;2.20;;;19.40;1.00;;;;;;5078089;28;20404;-84
2023/05/17 09:58:36;;;;;;;6.10;1.80;;;19.50;1.00;;;;;;5078399;28;20943;-84
2023/05/17 10:01:04;;;;;;;5.03;2.20;;;19.70;1.00;;;;;;5091187;28;20416;-77
2023/05/17 10:03:35;;;;;;;5.30;2.00;;;19.80;1.00;;;;;;5115928;28;20377;-77
2023/05/17 10:06:06;;;;;;;10.33;1.90;;;19.80;1.00;;;;;;5090106;28;20418;-77
2023/05/17 10:08:45;;;;;;;5.40;2.10;;;19.80;1.00;;;;;;5095823;28;20567;-77
2023/05/17 10:11:36;;;;;;;4.50;2.00;;;19.80;1.00;;;;;;5095677;28;20409;-77
2023/05/17 10:14:31;;;;;;;6.07;2.20;;;19.90;1.00;;;;;;5096005;28;21055;-79
2023/05/17 10:17:13;;;;;;;20.97;1.97;;;20.20;1.00;;;;;;5096038;28;20740;-79
2023/05/17 10:23:05;;;;;;;3.33;1.87;;;20.30;1.00;;;;;;5095667;28;20358;-80
2023/05/17 10:28:59;;;;;;;4.20;2.00;;;20.10;1.00;;;;;;5095628;28;20488;-80
2023/05/17 10:31:29;;;;;;;4.57;2.17;;;20.20;1.00;;;;;;5095392;28;20432;-80
2023/05/17 10:37:18;;;;;;;6.27;2.50;;;20.00;1.00;;;;;;5094890;28;20449;-80
2023/05/17 10:43:13;;;;;;;10.10;2.30;;;20.10;1.00;;;;;;5095016;28;20398;-77
2023/05/17 10:46:15;;;;;;;5.07;2.97;;;20.40;1.00;;;;;;5095553;28;20388;-77
2023/05/17 10:49:12;;;;;;;5.17;1.83;;;20.40;1.00;;;;;;5095018;28;20444;-77
2023/05/17 10:52:15;;;;;;;6.87;2.40;;;20.70;1.00;;;;;;5095378;28;20435;-76
2023/05/17 10:54:49;;;;;;;5.03;2.23;;;20.60;1.00;;;;;;5095029;28;20370;-77
2023/05/17 10:57:42;;;;;;;4.87;2.30;;;20.30;1.00;;;;;;5102496;28;20425;-77
2023/05/17 11:00:19;;;;;;;8.70;2.40;;;20.20;1.00;;;;;;5115991;28;20384;-80
2023/05/17 11:06:10;;;;;;;3.40;2.20;;;19.90;1.00;;;;;;5115241;28;20496;-80
2023/05/17 11:09:15;;;;;;;5.90;2.80;;;19.90;1.00;;;;;;5115068;28;20353;-80
2023/05/17 11:15:07;;;;;;;4.40;2.00;;;19.70;1.00;;;;;;5115333;28;20372;-80
2023/05/17 11:21:07;;;;;;;9.10;2.00;;;19.50;1.00;;;;;;5094521;28;20420;-80
2023/05/17 11:24:12;;;;;;;6.30;2.03;;;19.60;1.00;;;;;;5076149;28;20404;-80
2023/05/17 11:26:44;;;;;;;5.97;2.10;;;20.20;1.00;;;;;;5076225;28;20418;-80
2023/05/17 11:29:29;;;;;;;3.60;2.13;;;20.70;1.00;;;;;;5094703;28;20471;-77
2023/05/17 11:32:18;;;;;;;;;;;21.10;1.00;;;;;;5094593;28;20427;-77
2023/05/17 11:35:06;;;;;;;;;;;21.20;1.00;;;;;;5103575;28;20006;-77
2023/05/17 11:37:36;;;;;;;;;;;21.10;1.00;;;;;;5115099;28;20347;-77
2023/05/17 11:43:12;;;;;;;;;;;21.00;1.00;;;;;;5114762;28;19911;-76
2023/05/17 11:45:46;;;;;;;;;;;20.80;1.00;;;;;;5115942;28;19950;-77
2023/05/17 11:48:12;;;;;;;;;;;20.70;1.00;;;;;;5114700;28;19943;-77
2023/05/17 11:50:55;;;;;;;;;;;20.80;1.00;;;;;;5114885;28;20022;-77
2023/05/17 11:53:30;;;;;;;;;;;20.80;1.00;;;;;;5114796;28;19908;-77
2023/05/17 11:55:56;;;;;;;;;;;20.90;1.00;;;;;;5113551;28;19982;-77
2023/05/17 11:58:42;;;;;;;;;;;20.60;1.00;;;;;;5114717;28;19942;-76
2023/05/17 12:10:16;;;;;;;;;;;20.00;1.00;;;;;;5114658;28;20470;-80
2023/05/17 12:13:12;;;;;;;;;;;20.20;1.00;;;;;;5114258;28;19955;-80
2023/05/17 12:16:12;;;;;;;;;;;20.00;1.00;;;;;;5115090;28;19908;-77
2023/05/17 12:19:12;;;;;;;;;;;19.70;1.00;;;;;;5114434;28;19903;-77
2023/05/17 12:25:12;;;;;;;;;;;19.20;1.00;;;;;;5114421;28;19995;-77
2023/05/17 12:28:12;;;;;;;;;;;19.20;1.00;;;;;;5114982;28;19904;-77
2023/05/17 12:30:38;;;;;;;;;;;19.40;1.00;;;;;;5114947;28;20354;-77
2023/05/17 12:36:42;;;;;;;;;;;20.10;1.00;;;;;;5114513;28;19927;-77
2023/05/17 12:39:42;;;;;;;;;;;20.50;1.00;;;;;;5114641;28;19905;-77
2023/05/17 12:42:24;;;;;;;;;;;20.30;1.00;;;;;;5114206;28;19926;-77
2023/05/17 12:44:54;;;;;;;;;;;20.00;1.00;;;;;;5113115;28;20413;-77
2023/05/17 12:47:36;;;;;;;;;;;19.70;1.00;;;;;;5114488;28;19998;-77
2023/05/17 12:50:12;;;;;;;;;;;19.60;1.00;;;;;;5114169;28;19916;-77
2023/05/17 12:53:12;;;;;;;;;;;19.70;1.00;;;;;;5112709;28;19920;-77
2023/05/17 12:55:56;;;;;;;;;;;19.80;1.00;;;;;;5114421;28;19911;-77
2023/05/17 13:01:43;;;;;;;;;;;19.90;1.00;;;;;;5116923;28;20369;-77
2023/05/17 13:04:13;;;;;;;;;;;19.70;1.00;;;;;;5112229;28;19914;-77
2023/05/17 13:09:48;;;;;;;;;;;19.80;1.00;;;;;;5098389;28;19923;-88
2023/05/17 13:15:16;;;;;;;;;;;20.00;1.00;;;;;;5098467;28;20004;-85
2023/05/17 13:17:54;;;;;;;;;;;20.00;1.00;;;;;;5096594;28;19912;-87
2023/05/17 13:23:23;;;;;;;;;;;19.70;1.00;;;;;;5113723;28;20269;-85
2023/05/17 13:32:18;;;;;;;;;;;19.70;1.00;;;;;;5118218;28;19972;-86
2023/05/17 13:34:54;;;;;;;;;;;19.90;1.00;;;;;;5089196;28;20252;-87
2023/05/17 13:43:26;;;;;;;;;;;19.90;1.00;;;;;;5098140;28;19914;-86
2023/05/17 13:46:24;;;;;;;;;;;20.00;1.00;;;;;;5079871;28;19908;-87
2023/05/17 13:48:54;;;;;;;;;;;20.10;1.00;;;;;;5079949;28;19919;-86
2023/05/17 13:56:54;;;;;;;;;;;20.20;1.00;;;;;;5038549;28;19951;-86
2023/05/17 13:59:25;;;;;;;;;;;20.20;1.00;;;;;;5033237;28;19912;-86
2023/05/17 14:02:26;;;;;;;;;;;20.20;1.00;;;;;;5021834;28;20281;-88
2023/05/17 14:07:43;;;;;;;;;;;20.30;1.00;;;;;;4995169;28;19910;-88
2023/05/17 14:10:18;;;;;;;;;;;20.50;1.00;;;;;;4979506;28;19929;-87
2023/05/17 14:12:48;;;;;;;;;;;20.40;1.00;;;;;;4978986;28;19999;-85
2023/05/17 14:15:18;;;;;;;;;;;20.30;1.00;;;;;;4980299;28;19990;-87
2023/05/17 14:17:54;;;;;;;;;;;20.40;1.00;;;;;;4991274;28;19912;-90
2023/05/17 14:20:20;;;;;;;;;;;20.40;1.00;;;;;;4997299;28;19905;-92
2023/05/17 14:23:18;;;;;;;;;;;20.30;1.00;;;;;;4993100;28;19910;-90
2023/05/17 14:28:46;;;;;;;;;;;20.40;1.00;;;;;;4997076;28;20048;-87
2023/05/17 14:31:12;;;;;;;;;;;20.50;1.00;;;;;;5006836;28;19921;-89
2023/05/17 14:39:43;;;;;;;;;;;20.70;1.00;;;;;;5034532;28;20304;-89
2023/05/17 14:45:12;;;;;;;;;;;20.70;1.00;;;;;;5070603;28;20006;-85
2023/05/17 14:50:41;;;;;;;;;;;20.70;1.00;;;;;;5095347;28;19961;-88
2023/05/17 14:53:18;;;;;;;;;;;20.80;1.00;;;;;;5080782;28;20278;-89
2023/05/17 14:56:18;;;;;;;;;;;20.80;1.00;;;;;;5088001;28;19904;-89
2023/05/17 14:58:48;;;;;;;;;;;20.80;1.00;;;;;;5079341;28;19904;-90
2023/05/17 15:01:18;;;;;;;;;;;20.90;1.00;;;;;;5079063;28;19919;-86
2023/05/17 15:04:18;;;;;;;;;;;21.00;1.00;;;;;;5074458;28;19944;-86
2023/05/17 15:07:18;;;;;;;;;;;21.00;1.00;;;;;;5096768;28;19908;-86
2023/05/17 15:09:48;;;;;;;;;;;21.10;1.00;;;;;;5098118;28;19911;-86
2023/05/17 15:12:18;;;;;;;;;;;21.40;1.00;;;;;;5094930;28;19903;-87
2023/05/17 15:14:49;;;;;;;;;;;22.50;1.00;;;;;;5077818;28;19904;-88
2023/05/17 15:20:19;;;;;;;10.57;3.42;;;25.30;1.00;;;;;;5105224;28;20408;-89
2023/05/17 15:23:01;;;;;;;34.33;12.27;;;27.00;1.00;;;;;;5097592;28;20176;-90
2023/05/17 15:26:18;;;;;;;13.53;5.70;;;28.60;1.00;;;;;;5096309;28;20902;-90
2023/05/17 15:35:27;;;;;;;4.13;1.80;;;32.10;1.00;;;;;;5115370;28;20880;-90
2023/05/17 15:38:48;;;;;;;11.13;1.90;;;31.70;1.00;;;;;;5097192;28;20407;-91
2023/05/17 15:41:21;;;;;;;4.63;1.70;;;33.00;1.00;;;;;;5091892;28;20227;-90
2023/05/17 15:47:19;;;;;;;5.53;1.87;;;33.80;1.00;;;;;;5102111;28;20387;-89
2023/05/17 15:49:45;;;;;;;4.70;1.60;;;35.10;1.00;;;;;;5104866;28;20537;-87
2023/05/17 15:55:33;;;;;;;5.70;1.80;;;36.80;1.00;;;;;;5094450;28;20394;-89
2023/05/17 15:58:48;;;;;;;3.53;1.70;;;36.80;1.00;;;;;;5076505;28;20487;-89
2023/05/17 16:04:49;;;;;;;6.57;2.10;;;37.50;1.00;;;;;;5094259;28;20387;-90
2023/05/17 16:07:19;;;;;;;3.23;1.57;;;37.20;1.00;;;;;;5093361;28;20419;-90
2023/05/17 16:10:18;;;;;;;6.87;1.63;;;37.20;1.00;;;;;;5096698;28;20848;-89
2023/05/17 16:12:49;;;;;;;8.00;1.90;;;36.00;1.00;;;;;;5094297;28;20481;-89
2023/05/17 16:15:14;;;;;;;3.40;1.60;;;35.80;1.00;;;;;;5096606;28;20412;-88
2023/05/17 16:18:36;;;;;;;7.33;1.73;;;36.20;1.00;;;;;;5089444;28;20430;-89
2023/05/17 16:21:24;;;;;;;8.23;2.00;;;36.40;1.00;;;;;;5076021;28;20178;-90
2023/05/17 16:27:49;;;;;;;4.23;1.90;;;36.30;1.00;;;;;;5094580;28;20407;-89
2023/05/17 16:30:19;;;;;;;4.63;1.70;;;35.70;1.00;;;;;;5094653;28;20950;-90
2023/05/17 16:32:49;;;;;;;3.60;1.77;;;34.70;1.00;;;;;;5080222;28;20428;-90
2023/05/17 16:35:21;;;;;;;6.47;1.77;;;34.30;1.00;;;;;;5077013;28;20525;-90
2023/05/17 16:37:49;;;;;;;4.87;1.87;;;34.00;1.00;;;;;;5096028;28;20463;-90
2023/05/17 16:40:49;;;;;;;4.57;1.77;;;34.30;1.00;;;;;;5097137;28;20460;-89
2023/05/17 16:43:48;;;;;;;4.33;1.30;;;34.70;1.00;;;;;;5094447;28;21045;-90
2023/05/17 16:46:23;;;;;;;3.00;1.50;;;35.50;1.00;;;;;;5097926;28;20940;-90
2023/05/17 16:48:51;;;;;;;5.30;1.63;;;35.40;1.00;;;;;;5080267;28;20450;-89
2023/05/17 16:51:31;;;;;;;4.47;1.60;;;35.60;1.00;;;;;;5080207;28;20420;-89
2023/05/17 16:54:18;;;;;;;3.73;1.73;;;35.80;1.00;;;;;;5098651;28;20953;-89
2023/05/17 16:56:55;;;;;;;2.20;1.40;;;35.90;1.00;;;;;;5100189;28;20392;-89
2023/05/17 17:03:18;;;;;;;4.87;2.00;;;36.60;1.00;;;;;;5118497;28;20399;-90
2023/05/17 17:06:18;;;;;;;5.57;1.80;;;36.40;1.00;;;;;;5084134;28;20408;-89
2023/05/17 17:09:18;;;;;;;4.53;1.87;;;36.00;1.00;;;;;;5079565;28;20457;-90
2023/05/17 17:12:18;;;;;;;4.63;1.77;;;35.50;1.00;;;;;;5079920;28;20558;-89
2023/05/17 17:18:31;;;;;;;7.20;1.80;;;34.10;1.00;;;;;;5097669;28;20476;-86
2023/05/17 17:21:48;;;;;;;9.80;2.27;;;33.30;1.00;;;;;;5078759;28;20499;-90
2023/05/17 17:24:48;;;;;;;8.33;2.03;;;33.10;1.00;;;;;;5086843;28;20419;-90
2023/05/17 17:27:19;;;;;;;5.47;1.77;;;33.00;1.00;;;;;;5099683;28;20400;-90
2023/05/17 17:30:12;;;;;;;3.27;1.43;;;33.00;1.00;;;;;;5090859;28;20466;-88
2023/05/17 17:39:22;;;;;;;4.70;1.80;;;30.70;1.00;;;;;;5105928;28;20395;-84
2023/05/17 17:45:19;;;;;;;7.40;1.70;;;27.00;1.00;;;;;;5096984;28;20669;-84
2023/05/17 17:47:55;;;;;;;8.23;2.10;;;25.40;1.00;;;;;;5098327;28;20430;-88
2023/05/17 17:57:07;;;;;;;11.83;2.00;;;21.40;1.00;;;;;;5096608;28;20461;-92
2023/05/17 18:02:55;;;;;;;6.83;1.90;;;20.10;1.00;;;;;;5097211;28;20394;-92
2023/05/17 18:05:31;;;;;;;11.63;2.10;;;19.40;1.00;;;;;;5096751;28;20403;-91
2023/05/17 18:11:25;;;;;;;8.03;2.13;;;18.60;1.00;;;;;;5116839;28;20847;-93
2023/05/17 18:17:55;;;;;;;3.83;1.90;;;17.80;1.00;;;;;;5113004;28;20227;-86
2023/05/17 18:23:43;;;;;;;7.27;1.80;;;17.10;1.00;;;;;;5115158;28;20794;-89
2023/05/17 18:26:36;;;;;;;7.27;1.67;;;16.80;1.00;;;;;;5098646;28;20407;-83